OHCDU ENTC-ENTC

Flight info

Callsign OHCDU
Flight time 0h 9m
Altitude 2000
Route ENTC AREA SIGHTSEEING
Aircraft C185/L-V/N

Departure

Time 2026-05-05 18:34
Airport Tromsø Airport (ENTC)

Arrival

Time 2026-05-05 18:43
Airport Tromsø Airport (ENTC)
Time Latitude Longitude Altitude Speed Heading
2026-05-05 18:19 69.68367 18.91167 25 ft 0 kts 194°
2026-05-05 18:28 69.68366 18.91167 25 ft 1 kts 177°
2026-05-05 18:29 69.68363 18.91213 25 ft 3 kts 95°
2026-05-05 18:29 69.68359 18.91255 25 ft 5 kts 104°
2026-05-05 18:29 69.68351 18.91363 25 ft 5 kts 104°
2026-05-05 18:29 69.68337 18.91463 25 ft 7 kts 135°
2026-05-05 18:30 69.68281 18.91470 25 ft 8 kts 195°
2026-05-05 18:30 69.68205 18.91419 28 ft 14 kts 195°
2026-05-05 18:30 69.68087 18.91341 31 ft 19 kts 191°
2026-05-05 18:30 69.67953 18.91246 34 ft 22 kts 193°
2026-05-05 18:31 69.67788 18.91137 37 ft 24 kts 188°
2026-05-05 18:31 69.67745 18.91182 38 ft 5 kts 110°
2026-05-05 18:31 69.67743 18.91202 38 ft 0 kts 109°
2026-05-05 18:32 69.67742 18.91236 37 ft 3 kts 91°
2026-05-05 18:32 69.67740 18.91263 37 ft 3 kts 99°
2026-05-05 18:32 69.67730 18.91436 37 ft 11 kts 83°
2026-05-05 18:32 69.67755 18.91500 37 ft 0 kts 14°
2026-05-05 18:33 69.67760 18.91504 37 ft 6 kts 14°
2026-05-05 18:33 69.67789 18.91527 37 ft 0 kts 14°
2026-05-05 18:33 69.67897 18.91611 35 ft 54 kts 14°
2026-05-05 18:34 69.68483 18.91995 183 ft 108 kts 17°
2026-05-05 18:34 69.69234 18.92563 641 ft 110 kts 17°
2026-05-05 18:34 69.69964 18.93099 1232 ft 98 kts 14°
2026-05-05 18:34 69.70666 18.93182 1686 ft 116 kts 330°
2026-05-05 18:35 69.70971 18.90947 2048 ft 141 kts 270°
2026-05-05 18:35 69.70602 18.88281 2213 ft 155 kts 239°
2026-05-05 18:35 69.69792 18.85811 1903 ft 173 kts 223°
2026-05-05 18:35 69.68924 18.83367 1551 ft 167 kts 224°
2026-05-05 18:36 69.68143 18.81282 1318 ft 144 kts 221°
2026-05-05 18:36 69.67433 18.79418 1117 ft 130 kts 222°
2026-05-05 18:36 69.66999 18.77374 1089 ft 122 kts 267°
2026-05-05 18:36 69.67285 18.75138 1151 ft 115 kts 304°
2026-05-05 18:37 69.67676 18.72707 1423 ft 146 kts 293°
2026-05-05 18:37 69.68016 18.69741 1776 ft 160 kts 291°
2026-05-05 18:37 69.68281 18.66846 2051 ft 138 kts 286°
2026-05-05 18:37 69.68503 18.64181 1950 ft 128 kts 297°
2026-05-05 18:38 69.68941 18.61930 1777 ft 134 kts 306°
2026-05-05 18:38 69.69371 18.59603 1653 ft 124 kts 300°
2026-05-05 18:38 69.69546 18.57312 1526 ft 114 kts 278°
2026-05-05 18:38 69.69622 18.54984 1267 ft 122 kts 287°
2026-05-05 18:39 69.69747 18.52577 1164 ft 121 kts 281°
2026-05-05 18:39 69.69858 18.50342 1299 ft 100 kts 285°
2026-05-05 18:39 69.69902 18.48242 1164 ft 112 kts 277°
2026-05-05 18:39 69.69952 18.46022 1211 ft 104 kts 281°
2026-05-05 18:40 69.70111 18.44153 1324 ft 92 kts 293°
2026-05-05 18:40 69.70238 18.42184 1100 ft 111 kts 280°
2026-05-05 18:40 69.70277 18.39912 1023 ft 113 kts 271°
2026-05-05 18:40 69.70285 18.37728 923 ft 104 kts 279°
2026-05-05 18:41 69.70354 18.35681 756 ft 116 kts 276°
2026-05-05 18:41 69.70489 18.32994 1073 ft 141 kts 286°
2026-05-05 18:41 69.70859 18.30472 1498 ft 133 kts 330°
2026-05-05 18:41 69.71686 18.30954 1432 ft 129 kts 66°
2026-05-05 18:42 69.71428 18.33349 1396 ft 145 kts 122°
2026-05-05 18:42 69.71024 18.35948 855 ft 140 kts 116°
2026-05-05 18:42 69.70439 18.38026 387 ft 125 kts 129°
2026-05-05 18:42 69.70093 18.39988 174 ft 91 kts 88°
2026-05-05 18:43 69.70143 18.41428 84 ft 64 kts 84°
2026-05-05 18:43 69.70125 18.42604 41 ft 52 kts 86°
2026-05-05 18:43 69.70150 18.43553 31 ft 44 kts 78°
2026-05-05 18:43 69.70188 18.44379 26 ft 37 kts 77°
2026-05-05 18:44 69.70248 18.44884 26 ft 17 kts 68°
2026-05-05 18:44 69.70272 18.45101 26 ft 6 kts 69°
2026-05-05 18:44 69.70302 18.45188 26 ft 9 kts 99°
2026-05-05 18:44 69.70324 18.45609 26 ft 25 kts 76°
2026-05-05 18:45 69.70380 18.46041 26 ft 23 kts 59°
2026-05-05 18:45 69.70446 18.46475 26 ft 19 kts 77°
2026-05-05 18:45 69.70471 18.46764 26 ft 14 kts 77°
2026-05-05 18:45 69.70498 18.46996 26 ft 14 kts 51°
2026-05-05 18:46 69.70570 18.47242 26 ft 11 kts 50°
2026-05-05 18:46 69.70630 18.47434 26 ft 13 kts 44°
2026-05-05 18:46 69.70679 18.47548 26 ft 6 kts 45°
2026-05-05 18:46 69.70701 18.47625 26 ft 4 kts 70°
2026-05-05 18:47 69.70714 18.47729 26 ft 6 kts 78°
2026-05-05 18:47 69.70715 18.47814 26 ft 4 kts 116°
2026-05-05 18:47 69.70674 18.47915 26 ft 11 kts 127°
2026-05-05 18:47 69.70681 18.48042 26 ft 9 kts 39°
2026-05-05 18:48 69.70738 18.48196 25 ft 12 kts 49°
2026-05-05 18:48 69.70773 18.48337 25 ft 5 kts 75°
2026-05-05 18:48 69.70777 18.48431 25 ft 6 kts 100°
2026-05-05 18:48 69.70771 18.48534 25 ft 4 kts 111°
2026-05-05 18:49 69.70756 18.48600 25 ft 4 kts 134°
2026-05-05 18:49 69.70733 18.48656 25 ft 4 kts 140°
2026-05-05 18:49 69.70708 18.48704 25 ft 4 kts 128°
2026-05-05 18:49 69.70696 18.48752 25 ft 3 kts 63°
2026-05-05 18:50 69.70694 18.48856 25 ft 8 kts 112°
2026-05-05 18:50 69.70672 18.49035 25 ft 10 kts 103°
2026-05-05 18:50 69.70644 18.49262 25 ft 14 kts 112°
2026-05-05 18:50 69.70579 18.49488 25 ft 18 kts 147°
2026-05-05 18:51 69.70459 18.49725 24 ft 18 kts 135°
2026-05-05 18:51 69.70412 18.49937 25 ft 8 kts 109°
2026-05-05 18:51 69.70404 18.50050 24 ft 4 kts 77°
2026-05-05 18:51 69.70407 18.50132 24 ft 4 kts 90°
2026-05-05 18:52 69.70406 18.50212 25 ft 4 kts 93°
2026-05-05 18:52 69.70403 18.50290 25 ft 4 kts 90°
2026-05-05 18:52 69.70398 18.50367 25 ft 4 kts 107°
2026-05-05 18:52 69.70389 18.50508 25 ft 27 kts 79°
2026-05-05 18:53 69.70528 18.51773 203 ft 87 kts 69°
2026-05-05 18:53 69.70583 18.53837 404 ft 122 kts 101°
2026-05-05 18:53 69.70174 18.56253 379 ft 140 kts 121°
2026-05-05 18:53 69.69645 18.58508 668 ft 122 kts 112°
2026-05-05 18:54 69.69450 18.60824 887 ft 127 kts 100°
2026-05-05 18:54 69.69280 18.63246 1090 ft 124 kts 94°
2026-05-05 18:54 69.69258 18.65179 1273 ft 82 kts 89°
2026-05-05 18:54 69.69148 18.66911 1185 ft 92 kts 102°
2026-05-05 18:55 69.68960 18.68706 1093 ft 91 kts 104°
2026-05-05 18:55 69.68707 18.70437 968 ft 92 kts 113°
2026-05-05 18:55 69.68461 18.72055 935 ft 89 kts 109°
2026-05-05 18:55 69.68230 18.73655 953 ft 84 kts 109°
2026-05-05 18:56 69.67942 18.75081 917 ft 81 kts 107°
2026-05-05 18:56 69.67662 18.76529 848 ft 88 kts 123°
2026-05-05 18:56 69.67301 18.77948 830 ft 88 kts 123°
2026-05-05 18:56 69.66916 18.79305 819 ft 87 kts 126°
2026-05-05 18:57 69.66504 18.80638 780 ft 89 kts 126°
2026-05-05 18:57 69.66102 18.81982 731 ft 91 kts 124°
2026-05-05 18:57 69.65665 18.83377 665 ft 95 kts 131°
2026-05-05 18:57 69.65209 18.84629 651 ft 93 kts 130°
2026-05-05 18:58 69.64865 18.86095 677 ft 86 kts 111°
2026-05-05 18:58 69.64629 18.87855 563 ft 88 kts 102°
2026-05-05 18:58 69.64596 18.89389 409 ft 77 kts 43°
2026-05-05 18:58 69.65190 18.89687 399 ft 89 kts 11°
2026-05-05 18:59 69.65734 18.89994 374 ft 77 kts 19°
2026-05-05 18:59 69.66266 18.90495 369 ft 84 kts 18°
2026-05-05 18:59 69.66819 18.90818 179 ft 78 kts 18°
2026-05-05 18:59 69.67289 18.91166 82 ft 68 kts 22°
2026-05-05 19:00 69.67711 18.91470 43 ft 55 kts 17°
2026-05-05 19:00 69.67971 18.91655 35 ft 13 kts
2026-05-05 19:00 69.68055 18.91664 30 ft 9 kts 304°
2026-05-05 19:00 69.68071 18.91509 30 ft 6 kts 284°
2026-05-05 19:01 69.68078 18.91404 31 ft 7 kts 279°
2026-05-05 19:01 69.68079 18.91379 31 ft 0 kts 281°
2026-05-05 19:01 69.68103 18.91353 30 ft 13 kts
2026-05-05 19:01 69.68222 18.91430 27 ft 21 kts 13°
2026-05-05 19:02 69.68339 18.91497 25 ft 13 kts
2026-05-05 19:02 69.68407 18.91501 24 ft 0 kts
2026-05-05 19:03 69.68410 18.91501 24 ft 4 kts
2026-05-05 19:03 69.68498 18.91525 24 ft 14 kts
2026-05-05 19:03 69.68512 18.91365 24 ft 2 kts 294°
2026-05-05 19:03 69.68512 18.91361 24 ft 0 kts 288°